sensor_id;sensor_type;location;lat;lon;timestamp;pressure;altitude;pressure_sealevel;temperature;humidity
2339;BME280;1180;51.438;6.978;2024-02-28T00:01:31;100674.25;;;5.37;81.31
2339;BME280;1180;51.438;6.978;2024-02-28T00:03:56;100675.22;;;5.33;81.53
2339;BME280;1180;51.438;6.978;2024-02-28T00:06:22;100677.97;;;5.27;81.91
2339;BME280;1180;51.438;6.978;2024-02-28T00:08:47;100673.00;;;5.22;81.82
2339;BME280;1180;51.438;6.978;2024-02-28T00:11:12;100665.13;;;5.31;82.18
2339;BME280;1180;51.438;6.978;2024-02-28T00:13:38;100675.91;;;5.38;81.45
2339;BME280;1180;51.438;6.978;2024-02-28T00:16:03;100676.03;;;5.35;82.07
2339;BME280;1180;51.438;6.978;2024-02-28T00:18:29;100675.97;;;5.37;81.66
2339;BME280;1180;51.438;6.978;2024-02-28T00:20:56;100675.13;;;5.36;81.96
2339;BME280;1180;51.438;6.978;2024-02-28T00:23:21;100664.97;;;5.36;81.90
2339;BME280;1180;51.438;6.978;2024-02-28T00:25:47;100665.84;;;5.35;82.50
2339;BME280;1180;51.438;6.978;2024-02-28T00:28:12;100662.19;;;5.44;82.69
2339;BME280;1180;51.438;6.978;2024-02-28T00:30:38;100660.72;;;5.37;83.07
2339;BME280;1180;51.438;6.978;2024-02-28T00:33:03;100666.72;;;5.34;83.41
2339;BME280;1180;51.438;6.978;2024-02-28T00:35:32;100667.72;;;5.28;83.24
2339;BME280;1180;51.438;6.978;2024-02-28T00:37:58;100668.53;;;5.30;83.32
2339;BME280;1180;51.438;6.978;2024-02-28T00:40:24;100664.41;;;5.26;82.87
2339;BME280;1180;51.438;6.978;2024-02-28T00:42:50;100664.84;;;5.39;82.19
2339;BME280;1180;51.438;6.978;2024-02-28T00:45:16;100655.81;;;5.30;82.46
2339;BME280;1180;51.438;6.978;2024-02-28T00:47:41;100662.19;;;5.15;83.63
2339;BME280;1180;51.438;6.978;2024-02-28T00:50:08;100664.69;;;5.17;84.12
2339;BME280;1180;51.438;6.978;2024-02-28T00:52:33;100648.34;;;5.24;83.73
2339;BME280;1180;51.438;6.978;2024-02-28T00:54:58;100650.19;;;5.19;83.61
2339;BME280;1180;51.438;6.978;2024-02-28T00:57:24;100665.53;;;5.17;83.89
2339;BME280;1180;51.438;6.978;2024-02-28T00:59:50;100664.59;;;5.20;83.88
2339;BME280;1180;51.438;6.978;2024-02-28T01:02:15;100662.72;;;5.25;83.54
2339;BME280;1180;51.438;6.978;2024-02-28T01:04:41;100655.75;;;5.32;83.24
2339;BME280;1180;51.438;6.978;2024-02-28T01:07:06;100673.75;;;5.26;83.03
2339;BME280;1180;51.438;6.978;2024-02-28T01:09:31;100674.81;;;5.18;83.71
2339;BME280;1180;51.438;6.978;2024-02-28T01:11:57;100676.44;;;5.21;84.07
2339;BME280;1180;51.438;6.978;2024-02-28T01:14:22;100672.09;;;5.25;84.05
2339;BME280;1180;51.438;6.978;2024-02-28T01:16:47;100666.94;;;5.26;83.55
2339;BME280;1180;51.438;6.978;2024-02-28T01:19:15;100673.66;;;5.29;83.72
2339;BME280;1180;51.438;6.978;2024-02-28T01:21:41;100676.63;;;5.15;84.68
2339;BME280;1180;51.438;6.978;2024-02-28T01:24:06;100679.16;;;5.15;84.80
2339;BME280;1180;51.438;6.978;2024-02-28T01:26:32;100684.84;;;5.23;84.47
2339;BME280;1180;51.438;6.978;2024-02-28T01:28:57;100688.78;;;5.05;85.08
2339;BME280;1180;51.438;6.978;2024-02-28T01:31:22;100685.31;;;5.08;85.93
2339;BME280;1180;51.438;6.978;2024-02-28T01:33:48;100681.91;;;5.07;86.06
2339;BME280;1180;51.438;6.978;2024-02-28T01:36:13;100682.56;;;5.15;86.62
2339;BME280;1180;51.438;6.978;2024-02-28T01:38:39;100687.88;;;5.08;87.11
2339;BME280;1180;51.438;6.978;2024-02-28T01:41:04;100685.00;;;5.18;86.62
2339;BME280;1180;51.438;6.978;2024-02-28T01:43:31;100674.94;;;5.14;86.91
2339;BME280;1180;51.438;6.978;2024-02-28T01:45:57;100671.41;;;5.19;87.47
2339;BME280;1180;51.438;6.978;2024-02-28T01:48:25;100669.34;;;5.31;86.72
2339;BME280;1180;51.438;6.978;2024-02-28T01:50:50;100661.72;;;5.31;86.81
2339;BME280;1180;51.438;6.978;2024-02-28T01:53:16;100664.59;;;5.20;87.25
2339;BME280;1180;51.438;6.978;2024-02-28T01:55:42;100661.03;;;5.26;87.63
2339;BME280;1180;51.438;6.978;2024-02-28T01:58:08;100650.88;;;5.24;87.50
2339;BME280;1180;51.438;6.978;2024-02-28T02:00:34;100660.97;;;5.27;87.44
2339;BME280;1180;51.438;6.978;2024-02-28T02:03:02;100659.22;;;5.29;87.58
2339;BME280;1180;51.438;6.978;2024-02-28T02:05:28;100663.28;;;5.35;87.17
2339;BME280;1180;51.438;6.978;2024-02-28T02:07:54;100658.19;;;5.35;87.47
2339;BME280;1180;51.438;6.978;2024-02-28T02:10:20;100655.44;;;5.43;87.10
2339;BME280;1180;51.438;6.978;2024-02-28T02:12:45;100657.28;;;5.38;87.74
2339;BME280;1180;51.438;6.978;2024-02-28T02:15:11;100659.84;;;5.38;87.74
2339;BME280;1180;51.438;6.978;2024-02-28T02:17:36;100658.84;;;5.42;88.02
2339;BME280;1180;51.438;6.978;2024-02-28T02:20:02;100663.09;;;5.41;88.00
2339;BME280;1180;51.438;6.978;2024-02-28T02:22:34;100659.75;;;5.39;89.17
2339;BME280;1180;51.438;6.978;2024-02-28T02:24:59;100666.31;;;5.46;89.08
2339;BME280;1180;51.438;6.978;2024-02-28T02:27:24;100663.53;;;5.54;89.31
2339;BME280;1180;51.438;6.978;2024-02-28T02:29:51;100660.91;;;5.57;89.27
2339;BME280;1180;51.438;6.978;2024-02-28T02:32:16;100655.63;;;5.63;89.11
2339;BME280;1180;51.438;6.978;2024-02-28T02:34:41;100658.81;;;5.70;88.54
2339;BME280;1180;51.438;6.978;2024-02-28T02:37:07;100666.22;;;5.76;88.24
2339;BME280;1180;51.438;6.978;2024-02-28T02:39:34;100663.78;;;5.73;88.50
2339;BME280;1180;51.438;6.978;2024-02-28T02:41:59;100662.28;;;5.68;89.21
2339;BME280;1180;51.438;6.978;2024-02-28T02:44:25;100662.66;;;5.82;89.08
2339;BME280;1180;51.438;6.978;2024-02-28T02:46:50;100668.53;;;5.84;88.80
2339;BME280;1180;51.438;6.978;2024-02-28T02:49:15;100668.50;;;5.86;89.37
2339;BME280;1180;51.438;6.978;2024-02-28T02:51:43;100668.50;;;5.86;89.91
2339;BME280;1180;51.438;6.978;2024-02-28T02:54:08;100675.19;;;5.88;90.14
2339;BME280;1180;51.438;6.978;2024-02-28T02:56:34;100679.47;;;5.88;90.60
2339;BME280;1180;51.438;6.978;2024-02-28T02:58:59;100674.28;;;5.91;90.92
2339;BME280;1180;51.438;6.978;2024-02-28T03:01:24;100679.94;;;5.99;91.12
2339;BME280;1180;51.438;6.978;2024-02-28T03:03:50;100689.25;;;6.02;90.64
2339;BME280;1180;51.438;6.978;2024-02-28T03:06:16;100687.38;;;6.07;90.67
2339;BME280;1180;51.438;6.978;2024-02-28T03:08:41;100681.66;;;5.99;90.80
2339;BME280;1180;51.438;6.978;2024-02-28T03:11:08;100682.72;;;5.91;91.95
2339;BME280;1180;51.438;6.978;2024-02-28T03:13:34;100686.50;;;6.08;91.81
2339;BME280;1180;51.438;6.978;2024-02-28T03:15:59;100686.59;;;6.05;90.92
2339;BME280;1180;51.438;6.978;2024-02-28T03:18:24;100691.00;;;5.98;91.47
2339;BME280;1180;51.438;6.978;2024-02-28T03:20:50;100692.56;;;6.04;91.68
2339;BME280;1180;51.438;6.978;2024-02-28T03:23:15;100691.63;;;6.06;91.66
2339;BME280;1180;51.438;6.978;2024-02-28T03:25:40;100684.84;;;6.05;91.40
2339;BME280;1180;51.438;6.978;2024-02-28T03:28:06;100684.03;;;6.05;91.84
2339;BME280;1180;51.438;6.978;2024-02-28T03:30:31;100682.72;;;6.18;91.94
2339;BME280;1180;51.438;6.978;2024-02-28T03:32:56;100685.63;;;6.07;91.99
2339;BME280;1180;51.438;6.978;2024-02-28T03:35:22;100681.97;;;6.16;92.31
2339;BME280;1180;51.438;6.978;2024-02-28T03:37:47;100685.84;;;6.27;91.96
2339;BME280;1180;51.438;6.978;2024-02-28T03:40:13;100686.03;;;6.22;91.99
2339;BME280;1180;51.438;6.978;2024-02-28T03:42:40;100697.69;;;6.28;91.87
2339;BME280;1180;51.438;6.978;2024-02-28T03:45:05;100706.34;;;6.24;91.97
2339;BME280;1180;51.438;6.978;2024-02-28T03:47:31;100698.66;;;6.25;92.44
2339;BME280;1180;51.438;6.978;2024-02-28T03:49:56;100699.47;;;6.26;92.43
2339;BME280;1180;51.438;6.978;2024-02-28T03:52:23;100691.00;;;6.25;91.95
2339;BME280;1180;51.438;6.978;2024-02-28T03:54:48;100698.00;;;6.20;92.16
2339;BME280;1180;51.438;6.978;2024-02-28T03:57:13;100700.25;;;6.28;92.05
2339;BME280;1180;51.438;6.978;2024-02-28T03:59:41;100704.38;;;6.32;91.63
2339;BME280;1180;51.438;6.978;2024-02-28T04:02:06;100707.88;;;6.29;91.54
2339;BME280;1180;51.438;6.978;2024-02-28T04:04:31;100709.50;;;6.32;91.52
2339;BME280;1180;51.438;6.978;2024-02-28T04:06:58;100720.75;;;6.25;91.92
2339;BME280;1180;51.438;6.978;2024-02-28T04:09:23;100707.22;;;6.22;92.86
2339;BME280;1180;51.438;6.978;2024-02-28T04:11:49;100700.25;;;6.28;92.04
2339;BME280;1180;51.438;6.978;2024-02-28T04:14:14;100706.31;;;6.25;92.67
2339;BME280;1180;51.438;6.978;2024-02-28T04:16:43;100709.41;;;6.33;92.42
2339;BME280;1180;51.438;6.978;2024-02-28T04:19:09;100704.38;;;6.32;92.56
2339;BME280;1180;51.438;6.978;2024-02-28T04:21:35;100704.38;;;6.32;92.64
2339;BME280;1180;51.438;6.978;2024-02-28T04:24:04;100708.50;;;6.36;92.77
2339;BME280;1180;51.438;6.978;2024-02-28T04:26:30;100701.63;;;6.38;92.96
2339;BME280;1180;51.438;6.978;2024-02-28T04:28:55;100705.00;;;6.39;93.02
2339;BME280;1180;51.438;6.978;2024-02-28T04:31:21;100698.91;;;6.43;92.99
2339;BME280;1180;51.438;6.978;2024-02-28T04:33:46;100700.25;;;6.53;92.64
2339;BME280;1180;51.438;6.978;2024-02-28T04:36:12;100699.97;;;6.61;92.38
2339;BME280;1180;51.438;6.978;2024-02-28T04:38:37;100695.38;;;6.47;93.04
2339;BME280;1180;51.438;6.978;2024-02-28T04:41:03;100700.31;;;6.52;93.33
2339;BME280;1180;51.438;6.978;2024-02-28T04:43:28;100708.78;;;6.52;93.41
2339;BME280;1180;51.438;6.978;2024-02-28T04:45:53;100709.78;;;6.48;94.12
2339;BME280;1180;51.438;6.978;2024-02-28T04:48:19;100709.78;;;6.48;94.02
2339;BME280;1180;51.438;6.978;2024-02-28T04:50:44;100705.38;;;6.53;94.12
2339;BME280;1180;51.438;6.978;2024-02-28T04:53:09;100711.16;;;6.57;93.75
2339;BME280;1180;51.438;6.978;2024-02-28T04:55:35;100716.16;;;6.60;93.67
2339;BME280;1180;51.438;6.978;2024-02-28T04:58:00;100717.88;;;6.59;93.89
2339;BME280;1180;51.438;6.978;2024-02-28T05:00:26;100725.66;;;6.56;94.24
2339;BME280;1180;51.438;6.978;2024-02-28T05:02:51;100722.16;;;6.59;94.17
2339;BME280;1180;51.438;6.978;2024-02-28T05:05:16;100723.91;;;6.57;93.72
2339;BME280;1180;51.438;6.978;2024-02-28T05:07:42;100723.72;;;6.63;94.07
2339;BME280;1180;51.438;6.978;2024-02-28T05:10:07;100720.34;;;6.62;93.59
2339;BME280;1180;51.438;6.978;2024-02-28T05:12:33;100736.31;;;6.68;93.53
2339;BME280;1180;51.438;6.978;2024-02-28T05:14:58;100736.38;;;6.66;93.11
2339;BME280;1180;51.438;6.978;2024-02-28T05:17:24;100734.00;;;6.60;93.65
2339;BME280;1180;51.438;6.978;2024-02-28T05:19:49;100730.63;;;6.59;93.32
2339;BME280;1180;51.438;6.978;2024-02-28T05:22:14;100729.97;;;6.54;93.91
2339;BME280;1180;51.438;6.978;2024-02-28T05:24:40;100727.47;;;6.53;94.06
2339;BME280;1180;51.438;6.978;2024-02-28T05:27:08;100731.53;;;6.58;93.95
2339;BME280;1180;51.438;6.978;2024-02-28T05:29:34;100742.28;;;6.67;93.68
2339;BME280;1180;51.438;6.978;2024-02-28T05:31:59;100746.34;;;6.72;93.24
2339;BME280;1180;51.438;6.978;2024-02-28T05:34:25;100746.47;;;6.69;93.32
2339;BME280;1180;51.438;6.978;2024-02-28T05:36:50;100748.94;;;6.71;93.51
2339;BME280;1180;51.438;6.978;2024-02-28T05:39:15;100759.91;;;6.73;93.47
2339;BME280;1180;51.438;6.978;2024-02-28T05:41:41;100759.78;;;6.77;92.91
2339;BME280;1180;51.438;6.978;2024-02-28T05:44:06;100769.88;;;6.81;92.57
2339;BME280;1180;51.438;6.978;2024-02-28T05:46:31;100768.31;;;6.76;93.12
2339;BME280;1180;51.438;6.978;2024-02-28T05:48:57;100772.63;;;6.74;93.16
2339;BME280;1180;51.438;6.978;2024-02-28T05:51:22;100773.41;;;6.76;93.40
2339;BME280;1180;51.438;6.978;2024-02-28T05:53:48;100772.41;;;6.81;93.45
2339;BME280;1180;51.438;6.978;2024-02-28T05:56:13;100783.41;;;6.83;93.19
2339;BME280;1180;51.438;6.978;2024-02-28T05:58:45;100783.34;;;6.84;93.17
2339;BME280;1180;51.438;6.978;2024-02-28T06:01:11;100781.41;;;6.91;92.66
2339;BME280;1180;51.438;6.978;2024-02-28T06:03:37;100785.84;;;6.86;92.28
2339;BME280;1180;51.438;6.978;2024-02-28T06:06:03;100786.78;;;6.83;92.54
2339;BME280;1180;51.438;6.978;2024-02-28T06:08:38;100785.22;;;6.79;92.96
2339;BME280;1180;51.438;6.978;2024-02-28T06:11:03;100789.38;;;6.82;92.76
2339;BME280;1180;51.438;6.978;2024-02-28T06:13:30;100791.38;;;6.73;93.34
2339;BME280;1180;51.438;6.978;2024-02-28T06:15:55;100791.19;;;6.78;93.30
2339;BME280;1180;51.438;6.978;2024-02-28T06:18:22;100796.38;;;6.76;93.54
2339;BME280;1180;51.438;6.978;2024-02-28T06:20:53;100788.38;;;6.86;92.93
2339;BME280;1180;51.438;6.978;2024-02-28T06:23:18;100801.03;;;6.89;92.69
2339;BME280;1180;51.438;6.978;2024-02-28T06:25:44;100806.22;;;6.87;92.59
2339;BME280;1180;51.438;6.978;2024-02-28T06:28:09;100795.16;;;6.87;92.79
2339;BME280;1180;51.438;6.978;2024-02-28T06:30:35;100802.13;;;6.82;92.87
2339;BME280;1180;51.438;6.978;2024-02-28T06:33:00;100799.59;;;6.82;93.17
2339;BME280;1180;51.438;6.978;2024-02-28T06:35:26;100804.59;;;6.85;93.29
2339;BME280;1180;51.438;6.978;2024-02-28T06:37:51;100809.69;;;6.85;93.40
2339;BME280;1180;51.438;6.978;2024-02-28T06:40:17;100818.38;;;6.79;93.77
2339;BME280;1180;51.438;6.978;2024-02-28T06:42:42;100825.78;;;6.87;93.10
2339;BME280;1180;51.438;6.978;2024-02-28T06:45:08;100831.88;;;6.83;93.06
2339;BME280;1180;51.438;6.978;2024-02-28T06:47:34;100831.66;;;6.89;93.40
2339;BME280;1180;51.438;6.978;2024-02-28T06:49:59;100839.19;;;6.92;93.09
2339;BME280;1180;51.438;6.978;2024-02-28T06:52:25;100837.59;;;6.89;93.19
2339;BME280;1180;51.438;6.978;2024-02-28T06:54:50;100842.81;;;6.86;93.19
2339;BME280;1180;51.438;6.978;2024-02-28T06:57:16;100834.50;;;6.81;93.01
2339;BME280;1180;51.438;6.978;2024-02-28T06:59:42;100839.53;;;6.83;93.02
2339;BME280;1180;51.438;6.978;2024-02-28T07:02:07;100846.97;;;6.89;92.90
2339;BME280;1180;51.438;6.978;2024-02-28T07:04:33;100852.66;;;6.97;92.56
2339;BME280;1180;51.438;6.978;2024-02-28T07:06:58;100854.09;;;6.79;93.06
2339;BME280;1180;51.438;6.978;2024-02-28T07:09:23;100854.91;;;6.81;93.63
2339;BME280;1180;51.438;6.978;2024-02-28T07:11:51;100853.06;;;6.85;93.41
2339;BME280;1180;51.438;6.978;2024-02-28T07:14:16;100849.47;;;6.90;93.36
2339;BME280;1180;51.438;6.978;2024-02-28T07:16:41;100853.78;;;6.88;93.22
2339;BME280;1180;51.438;6.978;2024-02-28T07:19:07;100850.41;;;6.88;93.24
2339;BME280;1180;51.438;6.978;2024-02-28T07:21:32;100866.31;;;6.96;93.19
2339;BME280;1180;51.438;6.978;2024-02-28T07:23:58;100860.91;;;7.04;92.84
2339;BME280;1180;51.438;6.978;2024-02-28T07:26:23;100860.91;;;7.04;92.67
2339;BME280;1180;51.438;6.978;2024-02-28T07:28:49;100861.88;;;7.01;92.94
2339;BME280;1180;51.438;6.978;2024-02-28T07:31:18;100861.66;;;7.07;92.14
2339;BME280;1180;51.438;6.978;2024-02-28T07:33:44;100860.34;;;6.96;92.47
2339;BME280;1180;51.438;6.978;2024-02-28T07:36:10;100856.94;;;6.95;92.18
2339;BME280;1180;51.438;6.978;2024-02-28T07:38:36;100865.41;;;6.97;91.57
2339;BME280;1180;51.438;6.978;2024-02-28T07:41:02;100860.97;;;7.02;91.57
2339;BME280;1180;51.438;6.978;2024-02-28T07:43:28;100870.19;;;7.06;91.57
2339;BME280;1180;51.438;6.978;2024-02-28T07:45:54;100863.44;;;7.05;91.57
2339;BME280;1180;51.438;6.978;2024-02-28T07:48:19;100870.09;;;7.10;91.93
2339;BME280;1180;51.438;6.978;2024-02-28T07:50:45;100869.88;;;7.16;91.43
2339;BME280;1180;51.438;6.978;2024-02-28T07:53:11;100868.09;;;7.18;90.65
2339;BME280;1180;51.438;6.978;2024-02-28T07:55:37;100867.06;;;7.23;90.69
2339;BME280;1180;51.438;6.978;2024-02-28T07:58:03;100862.00;;;7.22;90.46
2339;BME280;1180;51.438;6.978;2024-02-28T08:00:30;100873.09;;;7.21;89.43
2339;BME280;1180;51.438;6.978;2024-02-28T08:03:01;100871.59;;;7.15;89.27
2339;BME280;1180;51.438;6.978;2024-02-28T08:05:27;100876.63;;;7.17;89.69
2339;BME280;1180;51.438;6.978;2024-02-28T08:07:53;100882.63;;;7.16;89.78
2339;BME280;1180;51.438;6.978;2024-02-28T08:10:18;100889.19;;;7.23;90.06
2339;BME280;1180;51.438;6.978;2024-02-28T08:12:44;100884.84;;;7.25;89.59
2339;BME280;1180;51.438;6.978;2024-02-28T08:15:09;100888.09;;;7.30;89.21
2339;BME280;1180;51.438;6.978;2024-02-28T08:17:35;100890.97;;;7.21;88.40
2339;BME280;1180;51.438;6.978;2024-02-28T08:20:02;100887.09;;;7.34;88.66
2339;BME280;1180;51.438;6.978;2024-02-28T08:22:28;100886.16;;;7.37;88.42
2339;BME280;1180;51.438;6.978;2024-02-28T08:24:53;100892.69;;;7.44;88.41
2339;BME280;1180;51.438;6.978;2024-02-28T08:27:19;100892.81;;;7.41;88.58
2339;BME280;1180;51.438;6.978;2024-02-28T08:29:48;100888.31;;;7.48;88.40
2339;BME280;1180;51.438;6.978;2024-02-28T08:32:13;100894.75;;;7.58;87.41
2339;BME280;1180;51.438;6.978;2024-02-28T08:34:39;100891.22;;;7.62;86.50
2339;BME280;1180;51.438;6.978;2024-02-28T08:37:04;100890.34;;;7.63;86.90
2339;BME280;1180;51.438;6.978;2024-02-28T08:39:29;100888.66;;;7.62;86.35
2339;BME280;1180;51.438;6.978;2024-02-28T08:41:55;100895.88;;;7.51;86.12
2339;BME280;1180;51.438;6.978;2024-02-28T08:44:20;100900.75;;;7.57;86.27
2339;BME280;1180;51.438;6.978;2024-02-28T08:46:49;100902.41;;;7.58;86.10
2339;BME280;1180;51.438;6.978;2024-02-28T08:49:14;100899.75;;;7.61;86.24
2339;BME280;1180;51.438;6.978;2024-02-28T08:51:39;100904.84;;;7.61;86.92
2339;BME280;1180;51.438;6.978;2024-02-28T08:54:05;100909.97;;;7.85;87.35
2339;BME280;1180;51.438;6.978;2024-02-28T08:56:31;100918.16;;;7.93;85.30
2339;BME280;1180;51.438;6.978;2024-02-28T08:58:56;100916.47;;;7.94;85.14
2339;BME280;1180;51.438;6.978;2024-02-28T09:01:21;100909.69;;;7.93;84.03
2339;BME280;1180;51.438;6.978;2024-02-28T09:03:47;100923.50;;;7.87;83.30
2339;BME280;1180;51.438;6.978;2024-02-28T09:06:12;100922.75;;;7.85;83.96
2339;BME280;1180;51.438;6.978;2024-02-28T09:08:37;100920.91;;;7.89;83.29
2339;BME280;1180;51.438;6.978;2024-02-28T09:11:03;100921.81;;;7.88;83.38
2339;BME280;1180;51.438;6.978;2024-02-28T09:13:29;100931.78;;;7.70;83.46
2339;BME280;1180;51.438;6.978;2024-02-28T09:15:55;100924.59;;;7.58;84.35
2339;BME280;1180;51.438;6.978;2024-02-28T09:18:21;100933.03;;;7.60;84.54
2339;BME280;1180;51.438;6.978;2024-02-28T09:20:46;100926.03;;;7.65;84.34
2339;BME280;1180;51.438;6.978;2024-02-28T09:23:11;100936.97;;;7.69;85.06
2339;BME280;1180;51.438;6.978;2024-02-28T09:25:38;100931.47;;;7.79;84.97
2339;BME280;1180;51.438;6.978;2024-02-28T09:28:03;100924.28;;;7.89;84.13
2339;BME280;1180;51.438;6.978;2024-02-28T09:30:29;100930.91;;;7.95;84.38
2339;BME280;1180;51.438;6.978;2024-02-28T09:32:54;100929.72;;;8.04;84.18
2339;BME280;1180;51.438;6.978;2024-02-28T09:35:20;100922.09;;;8.02;83.98
2339;BME280;1180;51.438;6.978;2024-02-28T09:37:46;100922.31;;;7.98;84.15
2339;BME280;1180;51.438;6.978;2024-02-28T09:40:12;100926.81;;;7.91;83.98
2339;BME280;1180;51.438;6.978;2024-02-28T09:42:38;100924.91;;;7.96;84.16
2339;BME280;1180;51.438;6.978;2024-02-28T09:45:04;100928.97;;;8.02;84.14
2339;BME280;1180;51.438;6.978;2024-02-28T09:47:29;100924.31;;;8.12;83.79
2339;BME280;1180;51.438;6.978;2024-02-28T09:49:57;100931.56;;;8.22;82.92
2339;BME280;1180;51.438;6.978;2024-02-28T09:52:25;100922.97;;;8.25;83.12
2339;BME280;1180;51.438;6.978;2024-02-28T09:54:52;100923.09;;;8.22;82.70
2339;BME280;1180;51.438;6.978;2024-02-28T09:57:18;100910.22;;;8.23;83.21
2339;BME280;1180;51.438;6.978;2024-02-28T09:59:44;100912.66;;;8.27;83.46
2339;BME280;1180;51.438;6.978;2024-02-28T10:02:10;100919.22;;;8.34;83.70
2339;BME280;1180;51.438;6.978;2024-02-28T10:04:36;100904.31;;;8.44;83.35
2339;BME280;1180;51.438;6.978;2024-02-28T10:07:12;100903.25;;;8.51;83.35
2339;BME280;1180;51.438;6.978;2024-02-28T10:09:43;100904.56;;;8.60;82.74
2339;BME280;1180;51.438;6.978;2024-02-28T10:12:09;100904.66;;;8.58;82.35
2339;BME280;1180;51.438;6.978;2024-02-28T10:14:34;100907.69;;;8.68;82.31
2339;BME280;1180;51.438;6.978;2024-02-28T10:17:00;100902.69;;;8.65;81.71
2339;BME280;1180;51.438;6.978;2024-02-28T10:19:25;100900.38;;;8.79;80.93
2339;BME280;1180;51.438;6.978;2024-02-28T10:21:51;100906.00;;;8.88;80.29
2339;BME280;1180;51.438;6.978;2024-02-28T10:24:17;100915.16;;;8.93;79.80
2339;BME280;1180;51.438;6.978;2024-02-28T10:26:46;100926.31;;;8.92;79.66
2339;BME280;1180;51.438;6.978;2024-02-28T10:29:22;100919.13;;;9.01;79.15
2339;BME280;1180;51.438;6.978;2024-02-28T10:31:47;100913.69;;;9.08;79.64
2339;BME280;1180;51.438;6.978;2024-02-28T10:34:18;100931.53;;;9.10;78.33
2339;BME280;1180;51.438;6.978;2024-02-28T10:36:47;100934.94;;;9.10;78.23
2339;BME280;1180;51.438;6.978;2024-02-28T10:39:13;100938.44;;;9.08;78.27
2339;BME280;1180;51.438;6.978;2024-02-28T10:41:39;100939.16;;;9.12;78.06
2339;BME280;1180;51.438;6.978;2024-02-28T10:44:05;100941.78;;;9.10;77.26
2339;BME280;1180;51.438;6.978;2024-02-28T10:46:33;100946.84;;;9.12;77.64
2339;BME280;1180;51.438;6.978;2024-02-28T10:48:59;100945.81;;;9.16;77.64
2339;BME280;1180;51.438;6.978;2024-02-28T10:51:26;100942.09;;;9.23;77.57
2339;BME280;1180;51.438;6.978;2024-02-28T10:54:12;100938.19;;;9.35;76.85
2339;BME280;1180;51.438;6.978;2024-02-28T10:56:38;100941.66;;;9.34;76.80
2339;BME280;1180;51.438;6.978;2024-02-28T10:59:08;100931.47;;;9.32;77.39
2339;BME280;1180;51.438;6.978;2024-02-28T11:01:35;100939.66;;;9.41;77.91
2339;BME280;1180;51.438;6.978;2024-02-28T11:04:03;100939.34;;;9.48;77.86
2339;BME280;1180;51.438;6.978;2024-02-28T11:06:28;100937.41;;;9.53;77.10
2339;BME280;1180;51.438;6.978;2024-02-28T11:08:54;100937.41;;;9.53;76.25
2339;BME280;1180;51.438;6.978;2024-02-28T11:11:22;100942.31;;;9.58;75.65
2339;BME280;1180;51.438;6.978;2024-02-28T11:13:54;100941.28;;;9.62;75.71
2339;BME280;1180;51.438;6.978;2024-02-28T11:16:33;100944.19;;;9.74;76.15
2339;BME280;1180;51.438;6.978;2024-02-28T11:19:00;100934.28;;;9.85;75.77
2339;BME280;1180;51.438;6.978;2024-02-28T11:21:26;100939.28;;;9.88;74.81
2339;BME280;1180;51.438;6.978;2024-02-28T11:23:57;100934.22;;;9.87;74.59
2339;BME280;1180;51.438;6.978;2024-02-28T11:26:23;100925.41;;;9.92;74.00
2339;BME280;1180;51.438;6.978;2024-02-28T11:28:49;100921.06;;;9.94;73.66
2339;BME280;1180;51.438;6.978;2024-02-28T11:31:15;100915.28;;;9.89;73.79
2339;BME280;1180;51.438;6.978;2024-02-28T11:33:41;100918.63;;;9.91;73.97
2339;BME280;1180;51.438;6.978;2024-02-28T11:36:06;100912.59;;;9.92;74.27
2339;BME280;1180;51.438;6.978;2024-02-28T11:38:34;100916.41;;;10.03;73.88
2339;BME280;1180;51.438;6.978;2024-02-28T11:41:03;100913.72;;;10.06;74.03
2339;BME280;1180;51.438;6.978;2024-02-28T11:43:33;100913.72;;;10.06;73.75
2339;BME280;1180;51.438;6.978;2024-02-28T11:46:08;100902.53;;;10.07;73.29
2339;BME280;1180;51.438;6.978;2024-02-28T11:48:34;100904.00;;;10.13;73.20
2339;BME280;1180;51.438;6.978;2024-02-28T11:51:00;100909.13;;;10.13;73.70
2339;BME280;1180;51.438;6.978;2024-02-28T11:53:25;100897.22;;;10.11;73.57
2339;BME280;1180;51.438;6.978;2024-02-28T11:55:54;100894.41;;;10.16;73.50
2339;BME280;1180;51.438;6.978;2024-02-28T11:58:21;100895.50;;;10.10;73.27
2339;BME280;1180;51.438;6.978;2024-02-28T12:00:48;100893.84;;;10.29;72.74
2339;BME280;1180;51.438;6.978;2024-02-28T12:03:14;100883.28;;;10.35;73.14
2339;BME280;1180;51.438;6.978;2024-02-28T12:05:42;100881.81;;;10.48;72.45
2339;BME280;1180;51.438;6.978;2024-02-28T12:08:08;100877.44;;;10.50;72.14
2339;BME280;1180;51.438;6.978;2024-02-28T12:10:35;100875.78;;;10.67;71.40
2339;BME280;1180;51.438;6.978;2024-02-28T12:13:00;100879.59;;;10.76;70.40
2339;BME280;1180;51.438;6.978;2024-02-28T12:15:28;100875.31;;;10.76;70.19
2339;BME280;1180;51.438;6.978;2024-02-28T12:17:54;100876.22;;;10.75;70.25
2339;BME280;1180;51.438;6.978;2024-02-28T12:20:19;100873.03;;;10.88;69.26
2339;BME280;1180;51.438;6.978;2024-02-28T12:22:45;100869.84;;;11.00;68.96
2339;BME280;1180;51.438;6.978;2024-02-28T12:25:10;100867.13;;;11.03;68.01
2339;BME280;1180;51.438;6.978;2024-02-28T12:27:36;100865.91;;;11.10;68.14
2339;BME280;1180;51.438;6.978;2024-02-28T12:30:01;100863.59;;;11.22;67.75
2339;BME280;1180;51.438;6.978;2024-02-28T12:32:27;100863.09;;;11.15;67.76
2339;BME280;1180;51.438;6.978;2024-02-28T12:34:52;100857.44;;;11.08;67.68
2339;BME280;1180;51.438;6.978;2024-02-28T12:37:19;100854.78;;;11.10;67.86
2339;BME280;1180;51.438;6.978;2024-02-28T12:39:45;100850.31;;;11.13;68.44
2339;BME280;1180;51.438;6.978;2024-02-28T12:42:33;100856.50;;;11.27;67.98
2339;BME280;1180;51.438;6.978;2024-02-28T12:44:59;100846.69;;;11.34;68.24
2339;BME280;1180;51.438;6.978;2024-02-28T12:47:25;100854.00;;;11.41;68.04
2339;BME280;1180;51.438;6.978;2024-02-28T12:49:51;100834.94;;;11.46;66.94
2339;BME280;1180;51.438;6.978;2024-02-28T12:52:16;100838.09;;;11.51;66.64
2339;BME280;1180;51.438;6.978;2024-02-28T12:54:43;100825.41;;;11.64;66.12
2339;BME280;1180;51.438;6.978;2024-02-28T12:57:08;100831.22;;;11.67;65.79
2339;BME280;1180;51.438;6.978;2024-02-28T12:59:34;100830.47;;;11.65;65.58
2339;BME280;1180;51.438;6.978;2024-02-28T13:01:59;100825.81;;;11.72;65.99
2339;BME280;1180;51.438;6.978;2024-02-28T13:04:25;100825.22;;;11.83;64.97
2339;BME280;1180;51.438;6.978;2024-02-28T13:06:54;100823.22;;;11.88;63.97
2339;BME280;1180;51.438;6.978;2024-02-28T13:09:21;100815.63;;;12.03;63.29
2339;BME280;1180;51.438;6.978;2024-02-28T13:11:48;100817.09;;;12.07;63.43
2339;BME280;1180;51.438;6.978;2024-02-28T13:14:17;100814.28;;;12.11;63.55